logo
Search for airport 
image banner adimage banner adimage banner ad
image banner ad

SJEV - Evanderto Almeida

Located in Assaré, Brazil

ICAO - SJEV, IATA -

Data provided by Airmate  

General information

Coordinates: S6°59'21" W39°50'39"
Elevation is 2227 feet MSL.
Magnetic variation is -21° East
View others Airports in Ceará

Operational data

Special qualification required
Current time UTC:
Current local time:
Weather at : SBJU - Orlando Bezerra De Menezes ( 68 km )
METAR: SBJU 131600Z 19007KT 9999 BKN022 FEW024TCU 31/24 Q1012
View NOTAMs / SUP AIP / TFR affecting this airport [VIEW]
Communications frequencies: [VIEW]

Runways:

RWY identifierQFULength (ft)Width (ft)SurfaceLDA (ft)
14328175EARTH
32328175EARTH

Airport contact information

Address: Assaré Brazil

Satellite view of SJEV